sensor_id;sensor_type;location;lat;lon;timestamp;temperature;humidity
4910;DHT22;2470;49.868;8.660;2022-12-18T00:01:40;-4.70;99.90
4910;DHT22;2470;49.868;8.660;2022-12-18T00:04:11;-4.70;99.90
4910;DHT22;2470;49.868;8.660;2022-12-18T00:06:40;-4.70;99.90
4910;DHT22;2470;49.868;8.660;2022-12-18T00:09:05;-4.80;99.90
4910;DHT22;2470;49.868;8.660;2022-12-18T00:11:31;-4.80;99.90
4910;DHT22;2470;49.868;8.660;2022-12-18T00:13:58;-4.70;99.90
4910;DHT22;2470;49.868;8.660;2022-12-18T00:16:25;-4.70;99.90
4910;DHT22;2470;49.868;8.660;2022-12-18T00:18:53;-4.70;99.90
4910;DHT22;2470;49.868;8.660;2022-12-18T00:21:20;-4.70;99.90
4910;DHT22;2470;49.868;8.660;2022-12-18T00:23:47;-4.70;99.90
4910;DHT22;2470;49.868;8.660;2022-12-18T00:26:17;-4.80;99.90
4910;DHT22;2470;49.868;8.660;2022-12-18T00:28:44;-4.80;99.90
4910;DHT22;2470;49.868;8.660;2022-12-18T00:31:14;-4.80;99.90
4910;DHT22;2470;49.868;8.660;2022-12-18T00:33:40;-4.80;99.90
4910;DHT22;2470;49.868;8.660;2022-12-18T00:36:27;-4.80;99.90
4910;DHT22;2470;49.868;8.660;2022-12-18T00:38:54;-4.80;99.90
4910;DHT22;2470;49.868;8.660;2022-12-18T00:41:20;-4.80;99.90
4910;DHT22;2470;49.868;8.660;2022-12-18T00:44:11;-4.80;99.90
4910;DHT22;2470;49.868;8.660;2022-12-18T00:46:37;-4.80;99.90
4910;DHT22;2470;49.868;8.660;2022-12-18T00:49:03;-4.80;99.90
4910;DHT22;2470;49.868;8.660;2022-12-18T00:51:29;-4.70;99.90
4910;DHT22;2470;49.868;8.660;2022-12-18T00:53:54;-4.70;99.90
4910;DHT22;2470;49.868;8.660;2022-12-18T00:56:21;-4.70;99.90
4910;DHT22;2470;49.868;8.660;2022-12-18T00:58:47;-4.70;99.90
4910;DHT22;2470;49.868;8.660;2022-12-18T01:01:13;-4.70;99.90
4910;DHT22;2470;49.868;8.660;2022-12-18T01:03:39;-4.70;99.90
4910;DHT22;2470;49.868;8.660;2022-12-18T01:06:09;-4.70;99.90
4910;DHT22;2470;49.868;8.660;2022-12-18T01:08:36;-4.70;99.90
4910;DHT22;2470;49.868;8.660;2022-12-18T01:11:07;-4.60;99.90
4910;DHT22;2470;49.868;8.660;2022-12-18T01:13:33;-4.60;99.90
4910;DHT22;2470;49.868;8.660;2022-12-18T01:15:58;-4.60;99.90
4910;DHT22;2470;49.868;8.660;2022-12-18T01:18:24;-4.60;99.90
4910;DHT22;2470;49.868;8.660;2022-12-18T01:20:49;-4.60;99.90
4910;DHT22;2470;49.868;8.660;2022-12-18T01:23:15;-4.60;99.90
4910;DHT22;2470;49.868;8.660;2022-12-18T01:25:41;-4.60;99.90
4910;DHT22;2470;49.868;8.660;2022-12-18T01:28:06;-4.60;99.90
4910;DHT22;2470;49.868;8.660;2022-12-18T01:30:32;-4.70;99.90
4910;DHT22;2470;49.868;8.660;2022-12-18T01:32:57;-4.70;99.90
4910;DHT22;2470;49.868;8.660;2022-12-18T01:35:23;-4.70;99.90
4910;DHT22;2470;49.868;8.660;2022-12-18T01:37:48;-4.80;99.90
4910;DHT22;2470;49.868;8.660;2022-12-18T01:40:14;-4.80;99.90
4910;DHT22;2470;49.868;8.660;2022-12-18T01:42:39;-4.70;99.90
4910;DHT22;2470;49.868;8.660;2022-12-18T01:47:49;-4.80;99.90
4910;DHT22;2470;49.868;8.660;2022-12-18T01:50:23;-4.80;99.90
4910;DHT22;2470;49.868;8.660;2022-12-18T01:52:58;-4.70;99.90
4910;DHT22;2470;49.868;8.660;2022-12-18T01:55:28;-4.80;99.90
4910;DHT22;2470;49.868;8.660;2022-12-18T01:57:57;-4.80;99.90
4910;DHT22;2470;49.868;8.660;2022-12-18T02:00:25;-4.80;99.90
4910;DHT22;2470;49.868;8.660;2022-12-18T02:02:51;-4.90;99.90
4910;DHT22;2470;49.868;8.660;2022-12-18T02:05:40;-4.90;99.90
4910;DHT22;2470;49.868;8.660;2022-12-18T02:11:24;-4.90;99.90
4910;DHT22;2470;49.868;8.660;2022-12-18T02:16:52;-4.90;99.90
4910;DHT22;2470;49.868;8.660;2022-12-18T02:22:14;-4.90;99.90
4910;DHT22;2470;49.868;8.660;2022-12-18T02:27:49;-4.80;99.90
4910;DHT22;2470;49.868;8.660;2022-12-18T02:30:16;-4.80;99.90
4910;DHT22;2470;49.868;8.660;2022-12-18T02:32:51;-4.80;99.90
4910;DHT22;2470;49.868;8.660;2022-12-18T02:35:22;-4.80;99.90
4910;DHT22;2470;49.868;8.660;2022-12-18T02:37:49;-4.80;99.90
4910;DHT22;2470;49.868;8.660;2022-12-18T02:40:17;-4.80;99.90
4910;DHT22;2470;49.868;8.660;2022-12-18T02:42:43;-4.90;99.90
4910;DHT22;2470;49.868;8.660;2022-12-18T02:45:09;-4.90;99.90
4910;DHT22;2470;49.868;8.660;2022-12-18T02:47:39;-4.90;99.90
4910;DHT22;2470;49.868;8.660;2022-12-18T02:50:33;-4.90;99.90
4910;DHT22;2470;49.868;8.660;2022-12-18T02:53:27;-4.90;99.90
4910;DHT22;2470;49.868;8.660;2022-12-18T02:58:56;-5.00;99.90
4910;DHT22;2470;49.868;8.660;2022-12-18T03:01:32;-5.00;99.90
4910;DHT22;2470;49.868;8.660;2022-12-18T03:04:14;-5.00;99.90
4910;DHT22;2470;49.868;8.660;2022-12-18T03:06:44;-5.00;99.90
4910;DHT22;2470;49.868;8.660;2022-12-18T03:09:21;-5.00;99.90
4910;DHT22;2470;49.868;8.660;2022-12-18T03:11:53;-5.10;99.90
4910;DHT22;2470;49.868;8.660;2022-12-18T03:14:40;-5.00;99.90
4910;DHT22;2470;49.868;8.660;2022-12-18T03:17:13;-5.00;99.90
4910;DHT22;2470;49.868;8.660;2022-12-18T03:19:41;-5.00;99.90
4910;DHT22;2470;49.868;8.660;2022-12-18T03:22:08;-5.00;99.90
4910;DHT22;2470;49.868;8.660;2022-12-18T03:24:36;-5.00;99.90
4910;DHT22;2470;49.868;8.660;2022-12-18T03:27:06;-4.90;99.90
4910;DHT22;2470;49.868;8.660;2022-12-18T03:29:42;-4.90;99.90
4910;DHT22;2470;49.868;8.660;2022-12-18T03:32:16;-4.90;99.90
4910;DHT22;2470;49.868;8.660;2022-12-18T03:34:47;-4.90;99.90
4910;DHT22;2470;49.868;8.660;2022-12-18T03:37:14;-4.90;99.90
4910;DHT22;2470;49.868;8.660;2022-12-18T03:39:40;-4.90;99.90
4910;DHT22;2470;49.868;8.660;2022-12-18T03:42:25;-4.90;99.90
4910;DHT22;2470;49.868;8.660;2022-12-18T03:47:30;-4.90;99.90
4910;DHT22;2470;49.868;8.660;2022-12-18T03:52:37;-5.00;99.90
4910;DHT22;2470;49.868;8.660;2022-12-18T03:55:05;-5.10;99.90
4910;DHT22;2470;49.868;8.660;2022-12-18T03:57:32;-5.10;99.90
4910;DHT22;2470;49.868;8.660;2022-12-18T04:00:19;-5.20;99.90
4910;DHT22;2470;49.868;8.660;2022-12-18T04:02:50;-5.30;99.90
4910;DHT22;2470;49.868;8.660;2022-12-18T04:05:17;-5.30;99.90
4910;DHT22;2470;49.868;8.660;2022-12-18T04:07:45;-5.30;99.90
4910;DHT22;2470;49.868;8.660;2022-12-18T04:10:12;-5.40;99.90
4910;DHT22;2470;49.868;8.660;2022-12-18T04:12:38;-5.40;99.90
4910;DHT22;2470;49.868;8.660;2022-12-18T04:15:05;-5.40;99.90
4910;DHT22;2470;49.868;8.660;2022-12-18T04:17:31;-5.40;99.90
4910;DHT22;2470;49.868;8.660;2022-12-18T04:19:56;-5.40;99.90
4910;DHT22;2470;49.868;8.660;2022-12-18T04:22:22;-5.40;99.90
4910;DHT22;2470;49.868;8.660;2022-12-18T04:24:47;-5.30;99.90
4910;DHT22;2470;49.868;8.660;2022-12-18T04:27:13;-5.30;99.90
4910;DHT22;2470;49.868;8.660;2022-12-18T04:29:38;-5.30;99.90
4910;DHT22;2470;49.868;8.660;2022-12-18T04:32:04;-5.30;99.90
4910;DHT22;2470;49.868;8.660;2022-12-18T04:34:29;-5.30;99.90
4910;DHT22;2470;49.868;8.660;2022-12-18T04:36:55;-5.30;99.90
4910;DHT22;2470;49.868;8.660;2022-12-18T04:39:21;-5.30;99.90
4910;DHT22;2470;49.868;8.660;2022-12-18T04:41:46;-5.30;99.90
4910;DHT22;2470;49.868;8.660;2022-12-18T04:44:12;-5.30;99.90
4910;DHT22;2470;49.868;8.660;2022-12-18T04:46:37;-5.40;99.90
4910;DHT22;2470;49.868;8.660;2022-12-18T04:49:03;-5.40;99.90
4910;DHT22;2470;49.868;8.660;2022-12-18T04:51:29;-5.40;99.90
4910;DHT22;2470;49.868;8.660;2022-12-18T04:53:54;-5.40;99.90
4910;DHT22;2470;49.868;8.660;2022-12-18T04:56:20;-5.40;99.90
4910;DHT22;2470;49.868;8.660;2022-12-18T04:58:46;-5.40;99.90
4910;DHT22;2470;49.868;8.660;2022-12-18T05:01:13;-5.40;99.90
4910;DHT22;2470;49.868;8.660;2022-12-18T05:03:39;-5.40;99.90
4910;DHT22;2470;49.868;8.660;2022-12-18T05:06:06;-5.40;99.90
4910;DHT22;2470;49.868;8.660;2022-12-18T05:08:32;-5.40;99.90
4910;DHT22;2470;49.868;8.660;2022-12-18T05:11:05;-5.30;99.90
4910;DHT22;2470;49.868;8.660;2022-12-18T05:13:31;-5.30;99.90
4910;DHT22;2470;49.868;8.660;2022-12-18T05:15:57;-5.30;99.90
4910;DHT22;2470;49.868;8.660;2022-12-18T05:18:23;-5.30;99.90
4910;DHT22;2470;49.868;8.660;2022-12-18T05:20:50;-5.30;99.90
4910;DHT22;2470;49.868;8.660;2022-12-18T05:23:16;-5.30;99.90
4910;DHT22;2470;49.868;8.660;2022-12-18T05:25:41;-5.20;99.90
4910;DHT22;2470;49.868;8.660;2022-12-18T05:28:07;-5.20;99.90
4910;DHT22;2470;49.868;8.660;2022-12-18T05:30:33;-5.20;99.90
4910;DHT22;2470;49.868;8.660;2022-12-18T05:32:58;-5.10;99.90
4910;DHT22;2470;49.868;8.660;2022-12-18T05:35:24;-5.20;99.90
4910;DHT22;2470;49.868;8.660;2022-12-18T05:37:49;-5.20;99.90
4910;DHT22;2470;49.868;8.660;2022-12-18T05:40:15;-5.20;99.90
4910;DHT22;2470;49.868;8.660;2022-12-18T05:42:40;-5.20;99.90
4910;DHT22;2470;49.868;8.660;2022-12-18T05:45:06;-5.20;99.90
4910;DHT22;2470;49.868;8.660;2022-12-18T05:47:32;-5.20;99.90
4910;DHT22;2470;49.868;8.660;2022-12-18T05:49:57;-5.10;99.90
4910;DHT22;2470;49.868;8.660;2022-12-18T05:52:23;-5.10;99.90
4910;DHT22;2470;49.868;8.660;2022-12-18T05:54:49;-5.10;99.90
4910;DHT22;2470;49.868;8.660;2022-12-18T05:57:14;-5.10;99.90
4910;DHT22;2470;49.868;8.660;2022-12-18T05:59:40;-5.00;99.90
4910;DHT22;2470;49.868;8.660;2022-12-18T06:02:05;-5.10;99.90
4910;DHT22;2470;49.868;8.660;2022-12-18T06:04:31;-5.00;99.90
4910;DHT22;2470;49.868;8.660;2022-12-18T06:06:56;-5.00;99.90
4910;DHT22;2470;49.868;8.660;2022-12-18T06:09:22;-5.00;99.90
4910;DHT22;2470;49.868;8.660;2022-12-18T06:11:48;-5.00;99.90
4910;DHT22;2470;49.868;8.660;2022-12-18T06:14:13;-5.00;99.90
4910;DHT22;2470;49.868;8.660;2022-12-18T06:16:42;-5.00;99.90
4910;DHT22;2470;49.868;8.660;2022-12-18T06:19:07;-5.00;99.90
4910;DHT22;2470;49.868;8.660;2022-12-18T06:21:33;-5.00;99.90
4910;DHT22;2470;49.868;8.660;2022-12-18T06:24:00;-5.00;99.90
4910;DHT22;2470;49.868;8.660;2022-12-18T06:26:25;-5.00;99.90
4910;DHT22;2470;49.868;8.660;2022-12-18T06:28:51;-5.00;99.90
4910;DHT22;2470;49.868;8.660;2022-12-18T06:31:16;-5.00;99.90
4910;DHT22;2470;49.868;8.660;2022-12-18T06:33:42;-5.00;99.90
4910;DHT22;2470;49.868;8.660;2022-12-18T06:36:09;-5.00;99.90
4910;DHT22;2470;49.868;8.660;2022-12-18T06:38:37;-5.00;99.90
4910;DHT22;2470;49.868;8.660;2022-12-18T06:41:11;-5.00;99.90
4910;DHT22;2470;49.868;8.660;2022-12-18T06:43:37;-5.00;99.90
4910;DHT22;2470;49.868;8.660;2022-12-18T06:46:04;-5.10;99.90
4910;DHT22;2470;49.868;8.660;2022-12-18T06:48:30;-5.10;99.90
4910;DHT22;2470;49.868;8.660;2022-12-18T06:50:56;-5.00;99.90
4910;DHT22;2470;49.868;8.660;2022-12-18T06:53:22;-5.00;99.90
4910;DHT22;2470;49.868;8.660;2022-12-18T06:55:48;-5.00;99.90
4910;DHT22;2470;49.868;8.660;2022-12-18T06:58:14;-5.00;99.90
4910;DHT22;2470;49.868;8.660;2022-12-18T07:00:39;-5.00;99.90
4910;DHT22;2470;49.868;8.660;2022-12-18T07:03:05;-5.00;99.90
4910;DHT22;2470;49.868;8.660;2022-12-18T07:05:30;-5.00;99.90
4910;DHT22;2470;49.868;8.660;2022-12-18T07:07:56;-5.00;99.90
4910;DHT22;2470;49.868;8.660;2022-12-18T07:10:21;-5.00;99.90
4910;DHT22;2470;49.868;8.660;2022-12-18T07:12:47;-5.00;99.90
4910;DHT22;2470;49.868;8.660;2022-12-18T07:15:12;-5.00;99.90
4910;DHT22;2470;49.868;8.660;2022-12-18T07:17:38;-5.00;99.90
4910;DHT22;2470;49.868;8.660;2022-12-18T07:20:03;-5.00;99.90
4910;DHT22;2470;49.868;8.660;2022-12-18T07:22:29;-5.00;99.90
4910;DHT22;2470;49.868;8.660;2022-12-18T07:24:55;-4.90;99.90
4910;DHT22;2470;49.868;8.660;2022-12-18T07:27:21;-4.90;99.90
4910;DHT22;2470;49.868;8.660;2022-12-18T07:29:47;-5.00;99.90
4910;DHT22;2470;49.868;8.660;2022-12-18T07:32:12;-5.00;99.90
4910;DHT22;2470;49.868;8.660;2022-12-18T07:34:38;-5.00;99.90
4910;DHT22;2470;49.868;8.660;2022-12-18T07:37:03;-5.20;99.90
4910;DHT22;2470;49.868;8.660;2022-12-18T07:39:29;-5.20;99.90
4910;DHT22;2470;49.868;8.660;2022-12-18T07:41:55;-5.20;99.90
4910;DHT22;2470;49.868;8.660;2022-12-18T07:44:39;-5.30;99.90
4910;DHT22;2470;49.868;8.660;2022-12-18T07:47:05;-5.30;99.90
4910;DHT22;2470;49.868;8.660;2022-12-18T07:49:30;-5.30;99.90
4910;DHT22;2470;49.868;8.660;2022-12-18T07:51:56;-5.30;99.90
4910;DHT22;2470;49.868;8.660;2022-12-18T07:54:23;-5.20;99.90
4910;DHT22;2470;49.868;8.660;2022-12-18T07:56:50;-5.20;99.90
4910;DHT22;2470;49.868;8.660;2022-12-18T07:59:15;-5.20;99.90
4910;DHT22;2470;49.868;8.660;2022-12-18T08:01:41;-5.10;99.90
4910;DHT22;2470;49.868;8.660;2022-12-18T08:04:06;-5.00;99.90
4910;DHT22;2470;49.868;8.660;2022-12-18T08:06:32;-5.00;99.90
4910;DHT22;2470;49.868;8.660;2022-12-18T08:08:58;-4.90;99.90
4910;DHT22;2470;49.868;8.660;2022-12-18T08:11:25;-4.90;99.90
4910;DHT22;2470;49.868;8.660;2022-12-18T08:13:51;-4.80;99.90
4910;DHT22;2470;49.868;8.660;2022-12-18T08:16:17;-4.70;99.90
4910;DHT22;2470;49.868;8.660;2022-12-18T08:18:43;-4.70;99.90
4910;DHT22;2470;49.868;8.660;2022-12-18T08:21:14;-4.60;99.90
4910;DHT22;2470;49.868;8.660;2022-12-18T08:23:40;-4.60;99.90
4910;DHT22;2470;49.868;8.660;2022-12-18T08:26:07;-4.50;99.90
4910;DHT22;2470;49.868;8.660;2022-12-18T08:28:33;-4.50;99.90
4910;DHT22;2470;49.868;8.660;2022-12-18T08:30:59;-4.50;99.90
4910;DHT22;2470;49.868;8.660;2022-12-18T08:33:24;-4.40;99.90
4910;DHT22;2470;49.868;8.660;2022-12-18T08:35:50;-4.40;99.90
4910;DHT22;2470;49.868;8.660;2022-12-18T08:38:15;-4.30;99.90
4910;DHT22;2470;49.868;8.660;2022-12-18T08:40:41;-4.30;99.90
4910;DHT22;2470;49.868;8.660;2022-12-18T08:43:09;-4.30;99.90
4910;DHT22;2470;49.868;8.660;2022-12-18T08:45:53;-4.30;99.90
4910;DHT22;2470;49.868;8.660;2022-12-18T08:48:19;-4.30;99.90
4910;DHT22;2470;49.868;8.660;2022-12-18T08:50:56;-4.20;99.90
4910;DHT22;2470;49.868;8.660;2022-12-18T08:53:23;-4.20;99.90
4910;DHT22;2470;49.868;8.660;2022-12-18T08:55:49;-4.10;99.90
4910;DHT22;2470;49.868;8.660;2022-12-18T08:58:16;-4.00;99.90
4910;DHT22;2470;49.868;8.660;2022-12-18T09:00:42;-4.00;99.90
4910;DHT22;2470;49.868;8.660;2022-12-18T09:03:13;-3.90;99.90
4910;DHT22;2470;49.868;8.660;2022-12-18T09:05:39;-3.60;99.90
4910;DHT22;2470;49.868;8.660;2022-12-18T09:08:04;-3.50;99.90
4910;DHT22;2470;49.868;8.660;2022-12-18T09:10:33;-3.20;99.90
4910;DHT22;2470;49.868;8.660;2022-12-18T09:12:59;-3.20;99.90
4910;DHT22;2470;49.868;8.660;2022-12-18T09:15:25;-3.20;99.90
4910;DHT22;2470;49.868;8.660;2022-12-18T09:17:50;-3.10;99.90
4910;DHT22;2470;49.868;8.660;2022-12-18T09:20:18;-3.10;99.90
4910;DHT22;2470;49.868;8.660;2022-12-18T09:22:43;-3.10;99.90
4910;DHT22;2470;49.868;8.660;2022-12-18T09:25:09;-3.10;99.90
4910;DHT22;2470;49.868;8.660;2022-12-18T09:27:35;-3.10;99.90
4910;DHT22;2470;49.868;8.660;2022-12-18T09:30:01;-3.10;99.90
4910;DHT22;2470;49.868;8.660;2022-12-18T09:32:26;-3.10;99.90
4910;DHT22;2470;49.868;8.660;2022-12-18T09:34:52;-3.00;99.90
4910;DHT22;2470;49.868;8.660;2022-12-18T09:37:18;-3.00;99.90
4910;DHT22;2470;49.868;8.660;2022-12-18T09:39:43;-3.00;99.90
4910;DHT22;2470;49.868;8.660;2022-12-18T09:42:16;-3.00;99.90
4910;DHT22;2470;49.868;8.660;2022-12-18T09:44:47;-2.90;99.90
4910;DHT22;2470;49.868;8.660;2022-12-18T09:47:18;-2.90;99.90
4910;DHT22;2470;49.868;8.660;2022-12-18T09:49:47;-2.80;99.90
4910;DHT22;2470;49.868;8.660;2022-12-18T09:52:36;-2.70;99.90
4910;DHT22;2470;49.868;8.660;2022-12-18T09:55:17;-2.60;99.90
4910;DHT22;2470;49.868;8.660;2022-12-18T09:57:51;-2.50;99.90
4910;DHT22;2470;49.868;8.660;2022-12-18T10:00:20;-2.40;99.90
4910;DHT22;2470;49.868;8.660;2022-12-18T10:02:47;-2.30;99.90
4910;DHT22;2470;49.868;8.660;2022-12-18T10:05:19;-2.30;99.90
4910;DHT22;2470;49.868;8.660;2022-12-18T10:10:46;-2.30;99.90
4910;DHT22;2470;49.868;8.660;2022-12-18T10:16:09;-2.40;99.90
4910;DHT22;2470;49.868;8.660;2022-12-18T10:21:14;-2.40;99.90
4910;DHT22;2470;49.868;8.660;2022-12-18T10:26:14;-2.20;99.90
4910;DHT22;2470;49.868;8.660;2022-12-18T10:28:41;-2.10;99.90
4910;DHT22;2470;49.868;8.660;2022-12-18T10:31:20;-2.10;99.90
4910;DHT22;2470;49.868;8.660;2022-12-18T10:33:46;-2.00;99.90
4910;DHT22;2470;49.868;8.660;2022-12-18T10:36:12;-1.90;99.90
4910;DHT22;2470;49.868;8.660;2022-12-18T10:38:37;-1.80;99.90
4910;DHT22;2470;49.868;8.660;2022-12-18T10:41:04;-1.80;99.90
4910;DHT22;2470;49.868;8.660;2022-12-18T10:43:35;-1.70;99.90
4910;DHT22;2470;49.868;8.660;2022-12-18T10:49:00;-1.70;99.90
4910;DHT22;2470;49.868;8.660;2022-12-18T10:51:36;-1.60;99.90
4910;DHT22;2470;49.868;8.660;2022-12-18T10:54:13;-1.60;99.90
4910;DHT22;2470;49.868;8.660;2022-12-18T10:56:40;-1.60;99.90
4910;DHT22;2470;49.868;8.660;2022-12-18T10:59:08;-1.60;99.90
4910;DHT22;2470;49.868;8.660;2022-12-18T11:01:50;-1.50;99.90
4910;DHT22;2470;49.868;8.660;2022-12-18T11:04:24;-1.50;99.90
4910;DHT22;2470;49.868;8.660;2022-12-18T11:06:55;-1.50;99.90
4910;DHT22;2470;49.868;8.660;2022-12-18T11:09:23;-1.50;99.90
4910;DHT22;2470;49.868;8.660;2022-12-18T11:11:51;-1.50;99.90
4910;DHT22;2470;49.868;8.660;2022-12-18T11:14:22;-1.40;99.90
4910;DHT22;2470;49.868;8.660;2022-12-18T11:16:50;-1.40;99.90
4910;DHT22;2470;49.868;8.660;2022-12-18T11:19:34;-1.40;99.90
4910;DHT22;2470;49.868;8.660;2022-12-18T11:22:02;-1.40;99.90
4910;DHT22;2470;49.868;8.660;2022-12-18T11:26:59;-1.20;99.90
4910;DHT22;2470;49.868;8.660;2022-12-18T11:29:43;-1.10;99.90
4910;DHT22;2470;49.868;8.660;2022-12-18T11:33:14;-0.90;99.90
4910;DHT22;2470;49.868;8.660;2022-12-18T11:35:36;-0.80;99.90
4910;DHT22;2470;49.868;8.660;2022-12-18T11:40:45;-0.70;99.90
4910;DHT22;2470;49.868;8.660;2022-12-18T11:43:21;-0.60;99.90
4910;DHT22;2470;49.868;8.660;2022-12-18T11:46:03;-0.60;99.90
4910;DHT22;2470;49.868;8.660;2022-12-18T11:48:45;-0.50;99.90
4910;DHT22;2470;49.868;8.660;2022-12-18T11:51:20;-0.40;99.90
4910;DHT22;2470;49.868;8.660;2022-12-18T11:53:48;-0.40;99.90
4910;DHT22;2470;49.868;8.660;2022-12-18T11:59:02;-0.10;99.90
4910;DHT22;2470;49.868;8.660;2022-12-18T12:07:01;0.20;99.90
4910;DHT22;2470;49.868;8.660;2022-12-18T12:15:43;0.40;99.90
4910;DHT22;2470;49.868;8.660;2022-12-18T12:23:33;0.40;99.90
4910;DHT22;2470;49.868;8.660;2022-12-18T12:26:08;0.40;99.90
4910;DHT22;2470;49.868;8.660;2022-12-18T12:31:50;0.70;99.90
4910;DHT22;2470;49.868;8.660;2022-12-18T12:34:23;0.80;99.90
4910;DHT22;2470;49.868;8.660;2022-12-18T12:39:47;0.90;99.90
4910;DHT22;2470;49.868;8.660;2022-12-18T12:42:38;1.00;99.90
4910;DHT22;2470;49.868;8.660;2022-12-18T12:45:30;1.00;99.90
4910;DHT22;2470;49.868;8.660;2022-12-18T12:48:02;1.00;99.80
4910;DHT22;2470;49.868;8.660;2022-12-18T12:50:33;0.90;99.80
4910;DHT22;2470;49.868;8.660;2022-12-18T12:53:01;0.80;99.90
4910;DHT22;2470;49.868;8.660;2022-12-18T12:55:30;0.90;99.90
4910;DHT22;2470;49.868;8.660;2022-12-18T13:00:54;1.00;99.90
4910;DHT22;2470;49.868;8.660;2022-12-18T13:03:56;1.00;99.90
4910;DHT22;2470;49.868;8.660;2022-12-18T13:06:33;1.00;99.70
4910;DHT22;2470;49.868;8.660;2022-12-18T13:09:02;0.90;99.70
4910;DHT22;2470;49.868;8.660;2022-12-18T13:11:39;0.90;99.90
4910;DHT22;2470;49.868;8.660;2022-12-18T13:14:38;0.90;99.90
4910;DHT22;2470;49.868;8.660;2022-12-18T13:19:55;0.80;99.90
4910;DHT22;2470;49.868;8.660;2022-12-18T13:25:28;0.80;99.90
4910;DHT22;2470;49.868;8.660;2022-12-18T13:28:03;0.70;99.90
4910;DHT22;2470;49.868;8.660;2022-12-18T13:38:23;0.40;99.90
4910;DHT22;2470;49.868;8.660;2022-12-18T13:48:24;0.40;99.90
4910;DHT22;2470;49.868;8.660;2022-12-18T13:53:44;0.40;99.90
4910;DHT22;2470;49.868;8.660;2022-12-18T13:56:17;0.30;99.90
4910;DHT22;2470;49.868;8.660;2022-12-18T13:58:43;0.30;99.90
4910;DHT22;2470;49.868;8.660;2022-12-18T14:01:24;0.20;99.90
4910;DHT22;2470;49.868;8.660;2022-12-18T14:03:49;0.10;99.90
4910;DHT22;2470;49.868;8.660;2022-12-18T14:06:16;0.00;99.90
4910;DHT22;2470;49.868;8.660;2022-12-18T14:08:42;0.00;99.90
4910;DHT22;2470;49.868;8.660;2022-12-18T14:11:20;-0.10;99.90
4910;DHT22;2470;49.868;8.660;2022-12-18T14:13:47;-0.10;99.90
4910;DHT22;2470;49.868;8.660;2022-12-18T14:16:14;-0.20;99.90
4910;DHT22;2470;49.868;8.660;2022-12-18T14:18:46;-0.20;99.90
4910;DHT22;2470;49.868;8.660;2022-12-18T14:21:30;-0.30;99.90
4910;DHT22;2470;49.868;8.660;2022-12-18T14:24:19;-0.40;99.90
4910;DHT22;2470;49.868;8.660;2022-12-18T14:26:46;-0.40;99.90
4910;DHT22;2470;49.868;8.660;2022-12-18T14:32:18;-0.50;99.90
4910;DHT22;2470;49.868;8.660;2022-12-18T14:34:49;-0.50;99.90
4910;DHT22;2470;49.868;8.660;2022-12-18T14:37:20;-0.60;99.90
4910;DHT22;2470;49.868;8.660;2022-12-18T14:40:00;-0.80;99.90
4910;DHT22;2470;49.868;8.660;2022-12-18T14:42:27;-0.70;99.90
4910;DHT22;2470;49.868;8.660;2022-12-18T14:45:32;-0.70;99.90
4910;DHT22;2470;49.868;8.660;2022-12-18T14:47:59;-0.70;99.90
4910;DHT22;2470;49.868;8.660;2022-12-18T14:50:25;-0.70;99.90
4910;DHT22;2470;49.868;8.660;2022-12-18T14:52:51;-0.70;99.90
4910;DHT22;2470;49.868;8.660;2022-12-18T14:55:18;-0.80;99.90
4910;DHT22;2470;49.868;8.660;2022-12-18T14:57:45;-0.80;99.90
4910;DHT22;2470;49.868;8.660;2022-12-18T15:00:22;-0.80;99.90
4910;DHT22;2470;49.868;8.660;2022-12-18T15:02:55;-0.80;99.90
4910;DHT22;2470;49.868;8.660;2022-12-18T15:05:31;-0.90;99.90
4910;DHT22;2470;49.868;8.660;2022-12-18T15:07:59;-0.80;99.90
4910;DHT22;2470;49.868;8.660;2022-12-18T15:10:30;-0.90;99.90
4910;DHT22;2470;49.868;8.660;2022-12-18T15:18:13;-1.00;99.90
4910;DHT22;2470;49.868;8.660;2022-12-18T15:23:22;-1.00;99.90
4910;DHT22;2470;49.868;8.660;2022-12-18T15:25:58;-1.00;99.90
4910;DHT22;2470;49.868;8.660;2022-12-18T15:33:33;-1.10;99.90
4910;DHT22;2470;49.868;8.660;2022-12-18T15:36:01;-1.10;99.90
4910;DHT22;2470;49.868;8.660;2022-12-18T15:38:27;-1.10;99.90
4910;DHT22;2470;49.868;8.660;2022-12-18T15:40:53;-1.20;99.90
4910;DHT22;2470;49.868;8.660;2022-12-18T15:43:22;-1.20;99.90
4910;DHT22;2470;49.868;8.660;2022-12-18T15:46:09;-1.20;99.90
4910;DHT22;2470;49.868;8.660;2022-12-18T15:48:40;-1.20;99.90
4910;DHT22;2470;49.868;8.660;2022-12-18T15:53:40;-1.20;99.90
4910;DHT22;2470;49.868;8.660;2022-12-18T15:56:10;-1.20;99.90
4910;DHT22;2470;49.868;8.660;2022-12-18T15:58:55;-1.20;99.90
4910;DHT22;2470;49.868;8.660;2022-12-18T16:01:29;-1.20;99.90
4910;DHT22;2470;49.868;8.660;2022-12-18T16:03:55;-1.20;99.90
4910;DHT22;2470;49.868;8.660;2022-12-18T16:06:22;-1.20;99.90
4910;DHT22;2470;49.868;8.660;2022-12-18T16:08:47;-1.20;99.90
4910;DHT22;2470;49.868;8.660;2022-12-18T16:11:23;-1.10;99.90
4910;DHT22;2470;49.868;8.660;2022-12-18T16:14:12;-1.10;99.90
4910;DHT22;2470;49.868;8.660;2022-12-18T16:16:38;-1.10;99.90
4910;DHT22;2470;49.868;8.660;2022-12-18T16:19:03;-1.10;99.90
4910;DHT22;2470;49.868;8.660;2022-12-18T16:21:29;-1.10;99.90
4910;DHT22;2470;49.868;8.660;2022-12-18T16:23:54;-1.10;99.90
4910;DHT22;2470;49.868;8.660;2022-12-18T16:26:20;-1.10;99.90
4910;DHT22;2470;49.868;8.660;2022-12-18T16:28:45;-1.00;99.90
4910;DHT22;2470;49.868;8.660;2022-12-18T16:31:11;-1.00;99.90
4910;DHT22;2470;49.868;8.660;2022-12-18T16:33:36;-1.00;99.90
4910;DHT22;2470;49.868;8.660;2022-12-18T16:36:02;-1.00;99.90
4910;DHT22;2470;49.868;8.660;2022-12-18T16:38:28;-1.00;99.90
4910;DHT22;2470;49.868;8.660;2022-12-18T16:40:53;-1.00;99.90
4910;DHT22;2470;49.868;8.660;2022-12-18T16:43:37;-1.00;99.90
4910;DHT22;2470;49.868;8.660;2022-12-18T16:46:03;-1.00;99.90
4910;DHT22;2470;49.868;8.660;2022-12-18T16:48:28;-1.00;99.90
4910;DHT22;2470;49.868;8.660;2022-12-18T16:51:04;-1.00;99.90
4910;DHT22;2470;49.868;8.660;2022-12-18T16:53:31;-1.00;99.90
4910;DHT22;2470;49.868;8.660;2022-12-18T16:55:57;-1.00;99.90
4910;DHT22;2470;49.868;8.660;2022-12-18T16:58:22;-0.90;99.90
4910;DHT22;2470;49.868;8.660;2022-12-18T17:00:48;-0.90;99.90
4910;DHT22;2470;49.868;8.660;2022-12-18T17:03:17;-0.90;99.90
4910;DHT22;2470;49.868;8.660;2022-12-18T17:05:42;-0.90;99.90
4910;DHT22;2470;49.868;8.660;2022-12-18T17:08:08;-0.90;99.90
4910;DHT22;2470;49.868;8.660;2022-12-18T17:10:36;-1.00;99.90
4910;DHT22;2470;49.868;8.660;2022-12-18T17:13:02;-0.90;99.90
4910;DHT22;2470;49.868;8.660;2022-12-18T17:15:27;-0.90;99.90
4910;DHT22;2470;49.868;8.660;2022-12-18T17:17:53;-0.90;99.90
4910;DHT22;2470;49.868;8.660;2022-12-18T17:20:18;-0.90;99.90
4910;DHT22;2470;49.868;8.660;2022-12-18T17:22:44;-0.90;99.90
4910;DHT22;2470;49.868;8.660;2022-12-18T17:25:09;-0.80;99.90
4910;DHT22;2470;49.868;8.660;2022-12-18T17:27:35;-0.80;99.90
4910;DHT22;2470;49.868;8.660;2022-12-18T17:30:01;-0.80;99.90
4910;DHT22;2470;49.868;8.660;2022-12-18T17:32:26;-0.80;99.90
4910;DHT22;2470;49.868;8.660;2022-12-18T17:34:52;-0.80;99.90
4910;DHT22;2470;49.868;8.660;2022-12-18T17:37:18;-0.80;99.90
4910;DHT22;2470;49.868;8.660;2022-12-18T17:39:43;-0.80;99.90
4910;DHT22;2470;49.868;8.660;2022-12-18T17:42:09;-0.80;99.90
4910;DHT22;2470;49.868;8.660;2022-12-18T17:44:35;-0.70;99.90
4910;DHT22;2470;49.868;8.660;2022-12-18T17:47:01;-0.70;99.90
4910;DHT22;2470;49.868;8.660;2022-12-18T17:49:26;-0.70;99.90
4910;DHT22;2470;49.868;8.660;2022-12-18T17:51:52;-0.70;99.90
4910;DHT22;2470;49.868;8.660;2022-12-18T17:54:18;-0.70;99.90
4910;DHT22;2470;49.868;8.660;2022-12-18T17:56:44;-0.70;99.90
4910;DHT22;2470;49.868;8.660;2022-12-18T17:59:09;-0.70;99.90
4910;DHT22;2470;49.868;8.660;2022-12-18T18:01:35;-0.70;99.90
4910;DHT22;2470;49.868;8.660;2022-12-18T18:04:03;-0.70;99.90
4910;DHT22;2470;49.868;8.660;2022-12-18T18:06:28;-0.70;99.90
4910;DHT22;2470;49.868;8.660;2022-12-18T18:08:54;-0.70;99.90